This is the latest recevied weather packets stored in our database for station/object W7TTE. If no packets are shown the sender has not sent any weather packets the latest 10 day(s).
| Time | Temp. | Humidity | Pressure | Rain* | Wind** | Luminosity | Snow |
|---|---|---|---|---|---|---|---|
| 1777409704 | 28.89° C | 19% | 1017.3 hPa | 0 mm | - | 704 W/m² | - |
| 1777409096 | 28.33° C | 19% | 1017.5 hPa | 0 mm | - | 692 W/m² | - |
| 1777408183 | 28.33° C | 19% | 1017.7 hPa | 0 mm | - | 753 W/m² | - |
| 1777407879 | 28.33° C | 20% | 1017.6 hPa | 0 mm | - | 760 W/m² | - |
| 1777406971 | 28.33° C | 21% | 1017.6 hPa | 0 mm | - | 771 W/m² | - |
| 1777406671 | 27.78° C | 20% | 1017.6 hPa | 0 mm | - | 780 W/m² | - |
| 1777406367 | 27.78° C | 21% | 1017.7 hPa | 0 mm | - | 780 W/m² | - |
| 1777404855 | 28.33° C | 20% | 1018.1 hPa | 0 mm | - | 786 W/m² | - |
| 1777404552 | 27.78° C | 21% | 1018.1 hPa | 0 mm | - | 784 W/m² | - |
| 1777404248 | 27.22° C | 21% | 1018.2 hPa | 0 mm | - | 787 W/m² | - |
| 1777403945 | 27.22° C | 21% | 1018.3 hPa | 0 mm | - | 784 W/m² | - |
| 1777402734 | 26.67° C | 19% | 1018.7 hPa | 0 mm | - | 784 W/m² | - |
| 1777397275 | 23.89° C | 25% | 1019.3 hPa | 0 mm | - | 672 W/m² | - |
| 1777396669 | 24.44° C | 24% | 1019.2 hPa | 0 mm | - | 652 W/m² | - |
| 1777396062 | 23.33° C | 25% | 1019.3 hPa | 0 mm | - | 630 W/m² | - |
| 1777395453 | 23.89° C | 25% | 1019.1 hPa | 0 mm | - | 606 W/m² | - |
| 1777395150 | 23.33° C | 25% | 1019.1 hPa | 0 mm | - | 593 W/m² | - |
| 1777394847 | 23.33° C | 25% | 1019.3 hPa | 0 mm | - | 581 W/m² | - |
| 1777393935 | 22.78° C | 26% | 1019.1 hPa | 0 mm | - | 540 W/m² | - |
| 1777393635 | 22.22° C | 27% | 1019.4 hPa | 0 mm | - | 523 W/m² | - |
| 1777393330 | 22.22° C | 27% | 1019.3 hPa | 0 mm | - | 514 W/m² | - |
| 1777391203 | 21.11° C | 30% | 1019 hPa | 0 mm | - | 408 W/m² | - |
| 1777390595 | 20.56° C | 29% | 1019.1 hPa | 0 mm | - | 377 W/m² | - |
| 1777390292 | 20.56° C | 29% | 1019 hPa | 0 mm | - | 360 W/m² | - |
| 1777389987 | 20.56° C | 29% | 1019 hPa | 0 mm | - | 344 W/m² | - |
* Rain latest hour (hover to see other rain measurements)
** Current wind speed in m/s (hover to see current wind gust speed)